Arlington, Arizona
Current Conditions -  °F | °C
As of 1:35 PM on Wednesday 26 Nov 2014 (Local Time) from KBXK Reporting Station
Clear Clear  
Wind Chill: 20°   Ceiling: Unl
Heat Index: 20°   Visibility: 10mi
Dew Point: -9°   Wind: 3mph
Humidity: 13%   Direction: 190°S
Pressure: 30.23"   Gusts: NA
Location:  33.33°N, 112.77°W
Report Text: KBXK 262035Z AUTO 19003KT 10SM CLR 20/M09 A3023 RMK AO1
Loading
Personal Weather Stations






























Interactive Weather Map New forecast layout! Learn more

10-Day Weather Forecast

Advertisements
Track Severe Weather on mobile